Aeroporto :
LOGIN :

Iscrizione | Disclaimer

   EN    FR    IT 

 










Sommario :    VFR   VFR Marginale   IFR   IFR Intensivo   IFR Molto Intensivo
Visibilità : 
Base nubi : 
>= 8 km
>= 3000ft
5 / 8 km
1000 / 3000 ft
1500m / 5 km
500 / 1000 ft
800 / 1500m
200 / 500 ft
< 800m
< 200 ft
Simboli :   Temporali  Nebbia  Neve Forte  Precipitazioni Forti  Vento > 20 kt
SIGMETs :   Varie  Temporali  Ghiacco  Turbolenza  Onda orograficha  Ceneri Vulcaniche






- Altitudine del aeroporto : 412 ft
- Codice IATA : ADB


LTBJ - Adnan Menderes

ULTIMO METAR :
  • 191220Z 01010KT 340V040 8000 FEW030 BKN180 25/16 Q1017 NOSIG RMK RWY16 35009KT

METARs OBSOLETI :
  • 191150Z 01010KT 7000 FEW030 BKN180 24/16 Q1017 NOSIG RMK RWY16 34010KT
  • 191120Z 36010KT 6000 FEW010 BKN180 24/17 Q1017 NOSIG RMK RWY16 34010KT
  • 191050Z 01008KT 6000 FEW010 BKN180 23/17 Q1017 NOSIG
  • 191020Z 36008KT 6000 FEW010 BKN180 23/17 Q1018 NOSIG RMK RWY16 36008KT 340V040
  • 190950Z 36007KT 330V030 5000 BR FEW007 BKN180 22/17 Q1018 BECMG 8000

TAF TAF LTBJ
Valido dal 19 a 12 ore il 20 a 12 ore UTC


191040Z 1912/2012 36012KT 7000 FEW030 BKN200
BECMG 1915/1918 VRB02KT CAVOK
PROB40 2003/2006 3200 BR
BECMG 2006/2009 35013KT



MetMap, La meteo Aeronautica in un colpo d'occhio ! - Copyright ORBIFLY Dicembre 2007 - Disclaimer

ORBIFLY MET'MAP TEAM :

Programmazione e sviluppo : Alexandra Zaïnal
Concezione e sviluppo : Baudouin d'Aumeries
Co-Programmazione e sviluppo : Marc-Olivier Méhu
Supporto tecnico e logistico : Manuel Goepfert
Aiuto per la traduzione : Arnaldo La Scala

Contatto : metmap@orbifly.com




FONTI E CREDITI :

   NOAA